Time;durP1;ratioP1;P1;durP2;ratioP2;P2;SDS_P1;SDS_P2;PMS_P1;PMS_P2;Temp;Humidity;BMP_temperature;BMP_pressure;BME280_temperature;BME280_humidity;BME280_pressure;Samples;Min_cycle;Max_cycle;Signal;HPM_P1;HPM_P2
2022/07/16 00:03:40;;;;;;;6.20;2.60;;;;;;;17.02;70.01;96650.34;5037281;28;20216;-70
2022/07/16 00:06:06;;;;;;;4.90;2.97;;;;;;;16.50;70.97;96653.03;5038087;28;20208;-70
2022/07/16 00:08:32;;;;;;;3.53;2.25;;;;;;;16.37;71.67;96649.50;5038318;28;20225;-70
2022/07/16 00:10:59;;;;;;;4.00;2.90;;;;;;;16.47;71.70;96650.78;5037758;28;20224;-70
2022/07/16 00:13:25;;;;;;;8.45;2.78;;;;;;;16.47;71.24;96650.78;5037128;28;20669;-70
2022/07/16 00:15:55;;;;;;;7.10;2.85;;;;;;;16.44;72.44;96642.38;5037827;28;20198;-70
2022/07/16 00:21:06;;;;;;;4.60;2.63;;;;;;;16.09;73.22;96638.19;5036464;28;20240;-69
2022/07/16 00:23:32;;;;;;;4.45;2.50;;;;;;;15.99;73.07;96641.22;5037007;28;20296;-69
2022/07/16 00:25:59;;;;;;;6.50;2.40;;;;;;;16.07;73.30;96641.03;5037871;28;20205;-70
2022/07/16 00:28:25;;;;;;;7.40;2.95;;;;;;;16.07;72.91;96643.69;5037855;28;20240;-70
2022/07/16 00:30:53;;;;;;;4.32;2.70;;;;;;;16.22;73.31;96639.03;5036285;28;20224;-70
2022/07/16 00:33:19;;;;;;;6.63;2.55;;;;;;;15.94;74.46;96642.84;5036984;28;20208;-69
2022/07/16 00:35:46;;;;;;;7.55;2.50;;;;;;;15.81;74.68;96639.31;5037809;28;20669;-70
2022/07/16 00:38:13;;;;;;;5.13;2.60;;;;;;;15.89;74.82;96645.28;5037394;28;20197;-70
2022/07/16 00:40:39;;;;;;;8.30;2.80;;;;;;;15.44;76.09;96645.06;5037531;28;20316;-70
2022/07/16 00:43:10;;;;;;;3.90;2.50;;;;;;;15.62;76.86;96640.09;5036929;28;20204;-70
2022/07/16 00:45:37;;;;;;;6.45;2.70;;;;;;;15.69;76.26;96641.72;5036440;28;20670;-70
2022/07/16 00:48:06;;;;;;;3.70;2.50;;;;;;;15.89;74.91;96638.13;5037390;28;20217;-70
2022/07/16 00:50:32;;;;;;;4.88;3.00;;;;;;;16.03;74.88;96637.13;5037516;28;20217;-70
2022/07/16 00:53:01;;;;;;;7.50;2.90;;;;;;;15.90;74.40;96634.44;5036613;28;20208;-70
2022/07/16 00:55:27;;;;;;;8.45;2.70;;;;;;;16.08;74.49;96637.34;5037091;28;20616;-70
2022/07/16 00:57:55;;;;;;;3.72;2.58;;;;;;;16.20;73.61;96633.09;5037460;28;20209;-70
2022/07/16 01:00:22;;;;;;;4.85;2.47;;;;;;;15.62;74.15;96634.78;5037006;28;20225;-70
2022/07/16 01:02:50;;;;;;;4.10;2.70;;;;;;;15.70;73.93;96645.22;5036556;28;20209;-69
2022/07/16 01:05:19;;;;;;;4.53;2.60;;;;;;;15.61;74.43;96633.94;5037279;28;20197;-70
2022/07/16 01:07:46;;;;;;;4.60;2.78;;;;;;;15.39;75.59;96635.06;5036409;28;20235;-70
2022/07/16 01:10:14;;;;;;;5.50;2.70;;;;;;;15.31;75.82;96643.19;5036941;28;20225;-70
2022/07/16 01:12:41;;;;;;;4.38;2.78;;;;;;;15.56;75.47;96639.00;5036542;28;20205;-70
2022/07/16 01:15:08;;;;;;;3.92;2.60;;;;;;;15.69;75.98;96640.91;5037452;28;20205;-70
2022/07/16 01:17:35;;;;;;;6.80;2.72;;;;;;;15.66;74.88;96643.97;5036458;28;20200;-70
2022/07/16 01:20:02;;;;;;;5.68;2.58;;;;;;;15.25;74.85;96645.81;5036801;28;20233;-70
2022/07/16 01:22:29;;;;;;;3.85;2.38;;;;;;;15.50;75.04;96639.00;5036698;28;20205;-70
2022/07/16 01:24:57;;;;;;;5.38;2.97;;;;;;;15.59;75.26;96640.47;5036432;28;20212;-70
2022/07/16 01:27:24;;;;;;;5.03;2.83;;;;;;;15.63;75.84;96639.88;5036587;28;20212;-70
2022/07/16 01:29:50;;;;;;;6.60;3.05;;;;;;;15.61;75.83;96641.91;5036964;28;20208;-70
2022/07/16 01:32:16;;;;;;;3.70;2.67;;;;;;;15.56;75.77;96647.00;5036032;28;20292;-70
2022/07/16 01:34:43;;;;;;;5.93;2.90;;;;;;;15.54;74.92;96645.53;5036363;28;20294;-70
2022/07/16 01:37:11;;;;;;;5.50;2.90;;;;;;;15.64;75.50;96652.13;5036806;28;20196;-70
2022/07/16 01:39:39;;;;;;;5.35;2.80;;;;;;;15.17;75.82;96647.75;5036485;28;20570;-70
2022/07/16 01:42:10;;;;;;;4.32;2.97;;;;;;;15.36;75.66;96646.09;5035492;28;20197;-70
2022/07/16 01:44:38;;;;;;;5.20;2.88;;;;;;;15.35;75.78;96649.75;5036101;28;20203;-69
2022/07/16 01:47:07;;;;;;;3.10;2.50;;;;;;;15.13;76.14;96636.72;5036509;28;20940;-70
2022/07/16 01:49:34;;;;;;;4.07;2.83;;;;;;;15.32;76.42;96636.88;5036073;28;20225;-70
2022/07/16 01:52:05;;;;;;;5.47;2.83;;;;;;;15.08;76.31;96643.63;5036625;28;20205;-69
2022/07/16 01:54:32;;;;;;;5.07;2.80;;;;;;;14.91;77.80;96651.06;5036036;28;20857;-70
2022/07/16 01:56:58;;;;;;;4.85;2.83;;;;;;;15.08;77.38;96648.94;5036296;28;20288;-70
2022/07/16 01:59:26;;;;;;;6.30;3.08;;;;;;;15.28;76.91;96648.06;5036492;28;20225;-70
2022/07/16 02:01:52;;;;;;;3.38;2.40;;;;;;;14.89;76.24;96647.81;5036723;28;20220;-70
2022/07/16 02:04:19;;;;;;;4.88;2.95;;;;;;;14.94;76.83;96640.09;5035500;28;20205;-70
2022/07/16 02:06:45;;;;;;;4.65;2.72;;;;;;;15.20;76.82;96650.84;5036098;28;20213;-70
2022/07/16 02:09:12;;;;;;;4.63;2.88;;;;;;;15.19;75.65;96649.22;5036583;28;20221;-70
2022/07/16 02:11:38;;;;;;;4.13;2.65;;;;;;;14.87;75.49;96647.16;5036144;28;20224;-70
2022/07/16 02:14:04;;;;;;;3.85;2.70;;;;;;;14.61;77.28;96642.66;5035738;28;20228;-70
2022/07/16 02:16:32;;;;;;;5.88;2.75;;;;;;;14.90;77.60;96651.25;5036663;28;20202;-70
2022/07/16 02:18:59;;;;;;;5.15;3.05;;;;;;;14.88;78.83;96654.13;5035816;28;20201;-70
2022/07/16 02:21:25;;;;;;;4.97;3.10;;;;;;;15.01;78.66;96653.41;5035597;28;20237;-70
2022/07/16 02:23:52;;;;;;;6.20;3.10;;;;;;;14.81;77.85;96655.88;5035725;28;20201;-70
2022/07/16 02:26:18;;;;;;;3.70;2.60;;;;;;;14.82;76.40;96654.06;5036661;28;20488;-70
2022/07/16 02:28:45;;;;;;;4.07;2.90;;;;;;;14.59;76.81;96658.78;5036631;28;20233;-70
2022/07/16 02:31:11;;;;;;;4.05;2.95;;;;;;;14.73;76.94;96650.72;5035860;28;20221;-70
2022/07/16 02:33:39;;;;;;;4.38;2.85;;;;;;;14.50;77.64;96656.44;5035201;28;20475;-70
2022/07/16 02:36:06;;;;;;;6.70;3.13;;;;;;;14.29;77.87;96651.16;5036395;28;20644;-70
2022/07/16 02:38:32;;;;;;;5.63;3.00;;;;;;;14.61;77.78;96650.63;5036160;28;20207;-69
2022/07/16 02:40:59;;;;;;;4.78;2.90;;;;;;;14.33;79.70;96647.09;5035975;28;20232;-70
2022/07/16 02:43:25;;;;;;;3.65;2.95;;;;;;;14.17;78.97;96650.81;5031669;28;20235;-70
2022/07/16 02:45:52;;;;;;;5.72;3.53;;;;;;;14.28;79.74;96642.38;5035883;28;20224;-71
2022/07/16 02:48:18;;;;;;;4.28;2.90;;;;;;;14.37;78.35;96643.91;5036084;28;20225;-70
2022/07/16 02:50:47;;;;;;;4.72;3.05;;;;;;;14.66;78.22;96644.56;5035913;28;20717;-70
2022/07/16 02:53:13;;;;;;;4.50;2.47;;;;;;;14.43;77.25;96644.97;5036274;28;20197;-70
2022/07/16 02:55:40;;;;;;;4.63;2.85;;;;;;;14.64;77.74;96651.88;5039383;28;20565;-70
2022/07/16 02:58:06;;;;;;;3.70;2.80;;;;;;;14.46;76.83;96647.22;5039725;28;20201;-70
2022/07/16 03:00:33;;;;;;;4.32;2.60;;;;;;;14.35;76.28;96639.78;5039512;28;20225;-70
2022/07/16 03:02:59;;;;;;;5.82;3.00;;;;;;;14.56;75.63;96647.72;5038645;28;20201;-70
2022/07/16 03:05:27;;;;;;;4.85;3.10;;;;;;;14.28;77.75;96646.84;5039392;28;20201;-70
2022/07/16 03:07:55;;;;;;;3.47;2.75;;;;;;;14.41;77.57;96646.97;5039133;28;20212;-71
2022/07/16 03:10:22;;;;;;;4.50;2.97;;;;;;;13.82;79.39;96648.16;5038829;28;20221;-70
2022/07/16 03:12:48;;;;;;;6.55;3.33;;;;;;;14.07;79.89;96655.56;5038335;28;20225;-70
2022/07/16 03:15:14;;;;;;;5.03;2.95;;;;;;;14.39;79.51;96646.34;5039228;28;20216;-70
2022/07/16 03:17:42;;;;;;;4.88;3.00;;;;;;;14.11;80.14;96658.72;5038930;28;20198;-70
2022/07/16 03:20:11;;;;;;;5.78;3.33;;;;;;;14.37;78.08;96653.66;5039281;28;20221;-70
2022/07/16 03:22:42;;;;;;;6.75;2.83;;;;;;;14.23;78.05;96667.78;5038834;28;20237;-70
2022/07/16 03:25:10;;;;;;;5.15;2.97;;;;;;;14.45;77.59;96667.63;5039151;28;20201;-70
2022/07/16 03:27:36;;;;;;;5.70;3.03;;;;;;;14.36;77.31;96667.97;5039446;28;20209;-70
2022/07/16 03:30:03;;;;;;;7.65;3.50;;;;;;;14.24;78.26;96674.75;5038534;28;20236;-70
2022/07/16 03:32:30;;;;;;;4.50;2.78;;;;;;;13.90;78.47;96671.91;5037975;28;20201;-71
2022/07/16 03:34:56;;;;;;;13.43;3.20;;;;;;;13.68;79.80;96677.34;5039014;28;20652;-70
2022/07/16 03:37:23;;;;;;;13.00;3.60;;;;;;;14.02;81.04;96673.06;5039333;28;20224;-70
2022/07/16 03:39:49;;;;;;;4.85;3.00;;;;;;;14.33;78.62;96673.63;5039256;28;20205;-70
2022/07/16 03:42:17;;;;;;;4.53;3.55;;;;;;;14.43;78.39;96666.97;5037716;28;20205;-70
2022/07/16 03:44:43;;;;;;;5.57;3.33;;;;;;;14.37;78.13;96672.22;5038190;28;20253;-71
2022/07/16 03:47:10;;;;;;;8.30;3.80;;;;;;;13.82;79.12;96673.84;5039118;28;20197;-70
2022/07/16 03:49:36;;;;;;;5.80;3.35;;;;;;;13.95;78.55;96676.63;5038454;28;20254;-70
2022/07/16 03:52:03;;;;;;;9.25;3.20;;;;;;;14.08;78.01;96675.00;5038282;28;20201;-70
2022/07/16 03:54:29;;;;;;;6.80;3.40;;;;;;;13.98;78.14;96676.28;5037684;28;20335;-71
2022/07/16 03:56:56;;;;;;;5.38;3.00;;;;;;;13.91;78.14;96684.13;5038133;28;20220;-70
2022/07/16 03:59:24;;;;;;;5.80;3.20;;;;;;;14.11;77.71;96675.44;5038334;28;20204;-71
2022/07/16 04:01:50;;;;;;;6.30;3.50;;;;;;;13.69;78.87;96679.00;5038469;28;20321;-71
2022/07/16 04:04:17;;;;;;;7.35;3.85;;;;;;;13.63;78.79;96685.84;5036882;28;20212;-70
2022/07/16 04:06:43;;;;;;;12.50;3.50;;;;;;;13.83;78.70;96684.25;5037833;28;20204;-70
2022/07/16 04:09:10;;;;;;;12.65;4.15;;;;;;;13.69;79.62;96679.78;5038270;28;20709;-70
2022/07/16 04:11:36;;;;;;;10.27;3.53;;;;;;;13.71;79.75;96693.69;5037736;28;20232;-70
2022/07/16 04:14:03;;;;;;;20.33;3.67;;;;;;;13.65;80.77;96693.63;5037271;28;20205;-71
2022/07/16 04:16:31;;;;;;;18.85;3.88;;;;;;;13.75;81.05;96694.97;5038021;28;20197;-70
2022/07/16 04:18:57;;;;;;;8.17;3.70;;;;;;;13.58;80.96;96698.81;5037683;28;20212;-70
2022/07/16 04:21:24;;;;;;;10.18;4.07;;;;;;;13.54;82.19;96694.06;5037364;28;20683;-70
2022/07/16 04:23:50;;;;;;;12.48;4.00;;;;;;;13.68;82.10;96696.72;5037261;28;20284;-70
2022/07/16 04:26:16;;;;;;;10.63;3.92;;;;;;;13.61;82.77;96695.00;5037723;28;20208;-70
2022/07/16 04:28:43;;;;;;;5.43;3.83;;;;;;;13.72;83.67;96698.00;5037370;28;20229;-70
2022/07/16 04:31:09;;;;;;;7.07;3.93;;;;;;;13.88;83.51;96703.06;5037579;28;20225;-68
2022/07/16 04:33:37;;;;;;;15.20;4.22;;;;;;;14.12;83.40;96695.63;5036867;28;20201;-68
2022/07/16 04:36:04;;;;;;;14.50;4.15;;;;;;;13.83;84.21;96694.84;5037452;28;20205;-68
2022/07/16 04:38:31;;;;;;;10.30;4.20;;;;;;;14.14;82.43;96695.44;5037340;28;20212;-68
2022/07/16 04:40:57;;;;;;;7.85;3.72;;;;;;;13.93;84.50;96694.56;5037333;28;20324;-69
2022/07/16 04:43:24;;;;;;;8.30;4.05;;;;;;;14.00;84.28;96702.41;5037388;28;20213;-68
2022/07/16 04:45:50;;;;;;;8.75;3.63;;;;;;;14.42;82.88;96699.84;5037248;28;20212;-68
2022/07/16 04:48:17;;;;;;;9.95;4.40;;;;;;;14.35;83.54;96706.06;5037190;28;20201;-69
2022/07/16 04:50:45;;;;;;;13.68;4.05;;;;;;;14.54;84.17;96700.16;5036850;28;20221;-69
2022/07/16 04:53:11;;;;;;;14.45;4.53;;;;;;;14.62;84.27;96694.72;5036564;28;20205;-69
2022/07/16 04:55:38;;;;;;;12.40;4.03;;;;;;;14.80;84.03;96695.88;5037175;28;20204;-69
2022/07/16 04:58:05;;;;;;;13.38;4.50;;;;;;;14.88;84.60;96696.56;5037180;28;20209;-69
2022/07/16 05:00:31;;;;;;;14.95;4.57;;;;;;;15.08;83.87;96697.53;5037329;28;20304;-68
2022/07/16 05:02:58;;;;;;;13.57;4.60;;;;;;;15.08;82.79;96702.81;5036674;28;20197;-69
2022/07/16 05:05:25;;;;;;;8.80;5.22;;;;;;;15.20;83.48;96706.63;5036980;28;20208;-69
2022/07/16 05:07:53;;;;;;;20.33;5.18;;;;;;;15.39;80.18;96704.09;5037065;28;20220;-68
2022/07/16 05:10:20;;;;;;;7.75;4.63;;;;;;;15.50;77.62;96705.38;5037355;28;21224;-68
2022/07/16 05:12:47;;;;;;;9.55;4.50;;;;;;;15.53;76.78;96711.16;5035854;28;20213;-68
2022/07/16 05:15:13;;;;;;;6.97;4.45;;;;;;;15.70;73.77;96699.16;5036529;28;20209;-68
2022/07/16 05:17:40;;;;;;;6.93;4.07;;;;;;;15.76;76.02;96708.19;5036514;28;20562;-68
2022/07/16 05:20:09;;;;;;;11.27;4.55;;;;;;;16.02;74.99;96707.28;5036389;28;20228;-68
2022/07/16 05:22:36;;;;;;;10.98;4.53;;;;;;;16.07;75.00;96710.16;5035536;28;20685;-68
2022/07/16 05:25:04;;;;;;;8.95;4.85;;;;;;;16.14;74.56;96713.69;5037344;28;20205;-68
2022/07/16 05:27:31;;;;;;;11.82;4.35;;;;;;;15.99;72.96;96720.16;5036666;28;20202;-68
2022/07/16 05:29:57;;;;;;;8.88;4.43;;;;;;;16.12;73.48;96717.56;5036075;28;20764;-68
2022/07/16 05:32:25;;;;;;;9.00;4.45;;;;;;;16.23;73.06;96722.28;5035927;28;20201;-68
2022/07/16 05:34:51;;;;;;;10.75;4.20;;;;;;;16.26;70.72;96711.28;5036786;28;20209;-68
2022/07/16 05:37:17;;;;;;;7.60;4.07;;;;;;;16.46;70.26;96712.97;5036811;28;20213;-68
2022/07/16 05:39:44;;;;;;;13.30;4.20;;;;;;;16.58;71.24;96714.00;5036613;28;20706;-68
2022/07/16 05:42:12;;;;;;;8.50;4.28;;;;;;;16.62;72.25;96712.59;5036370;28;20197;-68
2022/07/16 05:44:38;;;;;;;11.93;4.40;;;;;;;16.73;71.90;96712.00;5036255;28;20205;-68
2022/07/16 05:47:05;;;;;;;8.45;4.13;;;;;;;16.89;70.81;96719.56;5036664;28;20212;-68
2022/07/16 05:49:32;;;;;;;7.63;4.25;;;;;;;16.95;71.08;96721.44;5036388;28;20229;-68
2022/07/16 05:51:58;;;;;;;11.93;4.40;;;;;;;16.99;69.45;96720.00;5034840;28;20220;-68
2022/07/16 05:54:25;;;;;;;11.93;4.47;;;;;;;17.08;70.39;96724.91;5034779;28;20259;-68
2022/07/16 05:56:51;;;;;;;8.15;4.00;;;;;;;17.16;66.98;96722.84;5035803;28;20630;-68
2022/07/16 05:59:19;;;;;;;6.30;3.22;;;;;;;17.41;67.41;96725.72;5036176;28;20219;-68
2022/07/16 06:01:46;;;;;;;9.15;3.60;;;;;;;17.43;65.46;96729.03;5035853;28;20591;-69
2022/07/16 06:04:12;;;;;;;5.50;3.30;;;;;;;17.67;64.30;96731.84;5035728;28;20212;-69
2022/07/16 06:06:39;;;;;;;7.05;3.00;;;;;;;18.05;64.95;96724.75;5035315;28;20201;-68
2022/07/16 06:09:05;;;;;;;9.88;3.03;;;;;;;18.03;62.82;96732.16;5035669;28;20639;-68
2022/07/16 06:11:31;;;;;;;8.57;3.78;;;;;;;18.17;63.94;96729.25;5036209;28;20225;-69
2022/07/16 06:13:58;;;;;;;8.30;3.10;;;;;;;17.99;62.76;96729.06;5035610;28;20208;-69
2022/07/16 06:16:27;;;;;;;5.95;3.00;;;;;;;18.19;62.29;96721.88;5035641;28;20201;-69
2022/07/16 06:18:53;;;;;;;7.30;3.03;;;;;;;18.39;62.11;96720.75;5036328;28;20237;-69
2022/07/16 06:21:20;;;;;;;4.63;3.10;;;;;;;18.18;62.73;96730.09;5035709;28;20236;-68
2022/07/16 06:23:46;;;;;;;8.90;3.40;;;;;;;18.33;62.21;96723.44;5034003;28;20447;-69
2022/07/16 06:26:13;;;;;;;6.38;3.15;;;;;;;18.66;60.91;96727.56;5036251;28;20201;-70
2022/07/16 06:28:39;;;;;;;4.72;3.03;;;;;;;18.85;60.17;96729.28;5039556;28;20205;-69
2022/07/16 06:31:06;;;;;;;7.53;3.20;;;;;;;18.67;59.56;96725.69;5039348;28;20237;-69
2022/07/16 06:33:34;;;;;;;5.10;2.85;;;;;;;18.98;58.55;96730.00;5039352;28;20213;-69
2022/07/16 06:36:01;;;;;;;6.25;3.05;;;;;;;18.96;57.38;96725.91;5039428;28;20205;-69
2022/07/16 06:38:27;;;;;;;5.10;2.70;;;;;;;19.12;59.70;96726.22;5038714;28;20288;-69
2022/07/16 06:40:54;;;;;;;6.95;3.13;;;;;;;19.05;60.33;96724.59;5037789;28;20418;-69
2022/07/16 06:43:20;;;;;;;6.82;3.08;;;;;;;19.02;58.23;96722.38;5038582;28;20204;-69
2022/07/16 06:45:47;;;;;;;7.13;2.72;;;;;;;19.28;56.69;96735.53;5038538;28;20205;-69
2022/07/16 06:48:13;;;;;;;3.70;2.60;;;;;;;19.50;56.36;96729.59;5039283;28;20197;-69
2022/07/16 06:50:41;;;;;;;4.65;2.47;;;;;;;19.60;55.99;96735.25;5038984;28;20225;-69
2022/07/16 06:53:07;;;;;;;6.30;2.53;;;;;;;19.61;56.03;96734.22;5037990;28;20617;-70
2022/07/16 06:55:34;;;;;;;5.10;2.00;;;;;;;19.58;57.07;96737.34;5038482;28;20809;-70
2022/07/16 06:58:00;;;;;;;4.32;2.20;;;;;;;19.77;57.71;96736.31;5039303;28;20705;-69
2022/07/16 07:00:27;;;;;;;6.85;2.25;;;;;;;19.96;55.18;96732.63;5038529;28;20588;-69
2022/07/16 07:02:53;;;;;;;5.95;2.60;;;;;;;20.06;53.68;96739.13;5038241;28;20652;-70
2022/07/16 07:05:20;;;;;;;4.97;2.42;;;;;;;20.27;52.85;96734.09;5038931;28;20564;-69
2022/07/16 07:07:47;;;;;;;7.43;2.60;;;;;;;20.58;53.79;96741.13;5038230;28;20208;-69
2022/07/16 07:10:14;;;;;;;8.48;2.50;;;;;;;20.37;53.61;96736.25;5037848;28;20241;-70
2022/07/16 07:12:41;;;;;;;9.55;2.55;;;;;;;20.50;50.57;96738.78;5038532;28;20216;-69
2022/07/16 07:15:09;;;;;;;10.68;2.25;;;;;;;20.58;53.64;96743.81;5038875;28;20201;-69
2022/07/16 07:17:36;;;;;;;4.13;2.10;;;;;;;20.70;49.54;96736.66;5037810;28;20695;-69
2022/07/16 07:20:03;;;;;;;4.18;2.33;;;;;;;20.88;51.52;96734.75;5038146;28;20235;-69
2022/07/16 07:22:30;;;;;;;5.97;2.20;;;;;;;20.91;51.78;96734.28;5038684;28;20205;-69
2022/07/16 07:24:58;;;;;;;6.35;1.92;;;;;;;21.01;51.20;96727.31;5037678;28;20682;-69
2022/07/16 07:27:24;;;;;;;5.05;2.17;;;;;;;21.28;48.41;96736.59;5038439;28;20206;-70
2022/07/16 07:29:50;;;;;;;4.45;2.08;;;;;;;21.36;48.35;96743.47;5038365;28;20709;-69
2022/07/16 07:32:17;;;;;;;4.88;2.10;;;;;;;21.33;46.31;96743.94;5037515;28;20693;-70
2022/07/16 07:34:43;;;;;;;4.53;1.85;;;;;;;21.37;47.07;96731.72;5038084;28;20224;-69
2022/07/16 07:37:10;;;;;;;4.32;2.15;;;;;;;21.62;45.31;96731.28;5038392;28;20220;-70
2022/07/16 07:39:38;;;;;;;4.95;2.22;;;;;;;21.68;50.51;96734.91;5037186;28;20204;-69
2022/07/16 07:42:06;;;;;;;6.57;2.22;;;;;;;21.82;45.22;96722.91;5038116;28;20202;-69
2022/07/16 07:44:32;;;;;;;4.18;1.73;;;;;;;21.89;45.65;96734.31;5037774;28;20946;-70
2022/07/16 07:46:58;;;;;;;4.97;1.90;;;;;;;21.97;45.29;96728.56;5037739;28;20688;-69
2022/07/16 07:49:25;;;;;;;6.38;1.92;;;;;;;21.90;46.59;96733.28;5037603;28;20201;-69
2022/07/16 07:51:53;;;;;;;6.35;2.15;;;;;;;22.13;44.58;96734.88;5037486;28;20512;-70
2022/07/16 07:54:21;;;;;;;4.82;2.03;;;;;;;22.02;44.20;96732.22;5037699;28;20229;-69
2022/07/16 07:56:47;;;;;;;3.50;2.00;;;;;;;22.22;45.65;96738.81;5037545;28;20602;-69
2022/07/16 07:59:15;;;;;;;4.75;1.70;;;;;;;22.34;43.25;96742.31;5038084;28;20212;-70
2022/07/16 08:01:42;;;;;;;3.00;2.00;;;;;;;22.36;41.58;96736.72;5037485;28;20716;-69
2022/07/16 08:04:09;;;;;;;2.65;1.73;;;;;;;22.23;42.69;96736.94;5036603;28;20205;-69
2022/07/16 08:06:36;;;;;;;2.70;1.73;;;;;;;22.33;46.32;96735.31;5037569;28;20666;-70
2022/07/16 08:09:03;;;;;;;3.38;2.00;;;;;;;22.37;42.79;96725.72;5037586;28;20595;-70
2022/07/16 08:11:29;;;;;;;5.95;1.90;;;;;;;22.40;42.62;96730.63;5036960;28;20229;-69
2022/07/16 08:13:56;;;;;;;5.47;1.85;;;;;;;22.40;42.92;96736.00;5036935;28;20391;-69
2022/07/16 08:16:24;;;;;;;3.30;2.13;;;;;;;22.61;43.21;96732.66;5037775;28;20201;-69
2022/07/16 08:18:50;;;;;;;2.60;2.03;;;;;;;22.85;42.84;96735.00;5036695;28;20193;-69
2022/07/16 08:21:17;;;;;;;5.05;1.70;;;;;;;22.78;42.12;96738.88;5036989;28;20233;-70
2022/07/16 08:26:27;;;;;;;5.07;2.17;;;;;;;22.67;42.55;96734.41;5036853;28;20212;-69
2022/07/16 08:28:54;;;;;;;4.90;2.25;;;;;;;22.89;44.10;96729.97;5037412;28;20198;-69
2022/07/16 08:31:20;;;;;;;5.70;2.50;;;;;;;23.10;43.56;96727.41;5037394;28;20225;-69
2022/07/16 08:33:48;;;;;;;6.57;2.35;;;;;;;23.06;43.83;96720.88;5036552;28;20467;-70
2022/07/16 08:36:15;;;;;;;5.20;2.30;;;;;;;23.19;43.84;96719.78;5036785;28;20205;-69
2022/07/16 08:38:41;;;;;;;4.63;2.22;;;;;;;23.26;42.52;96726.63;5037166;28;20205;-69
2022/07/16 08:41:08;;;;;;;3.47;2.13;;;;;;;23.34;40.05;96724.34;5036512;28;20221;-70
2022/07/16 08:43:35;;;;;;;4.50;2.40;;;;;;;23.31;39.35;96727.50;5035883;28;20208;-70
2022/07/16 08:46:02;;;;;;;6.43;2.00;;;;;;;23.16;41.04;96721.06;5036697;28;20201;-69
2022/07/16 08:48:30;;;;;;;12.38;2.38;;;;;;;23.05;43.75;96726.50;5036696;28;20201;-69
2022/07/16 08:51:01;;;;;;;3.67;2.28;;;;;;;23.48;42.66;96725.63;5035294;28;20225;-69
2022/07/16 08:53:29;;;;;;;5.55;2.40;;;;;;;23.51;42.01;96730.53;5036405;28;20197;-69
2022/07/16 08:55:56;;;;;;;3.97;2.13;;;;;;;23.42;41.06;96721.25;5036813;28;20211;-69
2022/07/16 08:58:23;;;;;;;2.88;1.90;;;;;;;23.48;42.05;96720.25;5036473;28;20574;-69
2022/07/16 09:00:49;;;;;;;7.22;2.40;;;;;;;23.58;39.54;96714.22;5036062;28;20225;-69
2022/07/16 09:03:16;;;;;;;4.18;2.38;;;;;;;23.49;40.53;96721.88;5036160;28;20216;-69
2022/07/16 09:05:43;;;;;;;5.63;2.85;;;;;;;23.71;39.81;96725.50;5036174;28;20201;-69
2022/07/16 09:08:10;;;;;;;4.85;2.50;;;;;;;23.92;40.60;96722.03;5036400;28;20584;-70
2022/07/16 09:10:39;;;;;;;4.50;2.53;;;;;;;23.93;39.23;96726.38;5036371;28;20244;-69
2022/07/16 09:13:06;;;;;;;3.80;2.30;;;;;;;24.14;42.27;96717.50;5035394;28;20205;-70
2022/07/16 09:15:34;;;;;;;5.07;2.40;;;;;;;24.51;40.32;96715.84;5035944;28;20205;-70
2022/07/16 09:18:10;;;;;;;4.10;2.15;;;;;;;24.49;40.42;96716.09;5036304;28;20812;-70
2022/07/16 09:20:37;;;;;;;3.90;1.95;;;;;;;24.30;39.59;96724.69;5036464;28;20237;-70
2022/07/16 09:23:04;;;;;;;3.88;2.15;;;;;;;24.11;39.30;96723.41;5035675;28;20590;-70
2022/07/16 09:25:32;;;;;;;3.50;2.40;;;;;;;24.38;38.56;96727.81;5036077;28;20247;-70
2022/07/16 09:27:59;;;;;;;6.65;2.67;;;;;;;24.62;39.26;96719.22;5035863;28;20208;-70
2022/07/16 09:30:28;;;;;;;5.90;2.28;;;;;;;24.83;41.06;96726.44;5036082;28;20229;-70
2022/07/16 09:32:55;;;;;;;5.82;2.67;;;;;;;25.05;40.28;96719.19;5035920;28;20205;-70
2022/07/16 09:35:22;;;;;;;5.38;2.40;;;;;;;25.01;39.06;96712.59;5036229;28;20208;-69
2022/07/16 09:37:51;;;;;;;4.32;1.80;;;;;;;24.92;35.33;96724.91;5035730;28;20208;-70
2022/07/16 09:40:31;;;;;;;2.38;1.70;;;;;;;24.86;36.75;96719.72;5035654;28;20213;-70
2022/07/16 09:43:00;;;;;;;4.80;1.90;;;;;;;24.77;36.05;96726.66;5035368;28;20204;-70
2022/07/16 09:45:26;;;;;;;7.10;1.80;;;;;;;24.41;37.78;96729.19;5036044;28;20224;-70
2022/07/16 09:47:54;;;;;;;3.55;1.98;;;;;;;24.70;37.20;96729.53;5035936;28;20685;-69
2022/07/16 09:50:21;;;;;;;3.17;1.90;;;;;;;24.69;38.18;96727.09;5035733;28;20235;-69
2022/07/16 09:52:47;;;;;;;3.72;2.10;;;;;;;24.93;35.98;96715.75;5034976;28;20212;-70
2022/07/16 09:55:14;;;;;;;4.70;2.05;;;;;;;25.23;35.78;96721.50;5036330;28;20205;-70
2022/07/16 09:57:41;;;;;;;3.30;1.67;;;;;;;24.81;36.38;96728.59;5035815;28;20208;-69
2022/07/16 10:00:10;;;;;;;3.20;1.77;;;;;;;24.92;35.49;96726.81;5035741;28;20217;-69
2022/07/16 10:02:37;;;;;;;2.33;1.45;;;;;;;24.91;36.41;96726.00;5037151;28;20703;-70
2022/07/16 10:05:04;;;;;;;3.50;1.70;;;;;;;25.34;36.55;96717.81;5039427;28;20201;-69
2022/07/16 10:07:30;;;;;;;2.95;1.70;;;;;;;25.44;35.14;96715.19;5039667;28;20680;-69
2022/07/16 10:09:57;;;;;;;3.25;1.95;;;;;;;25.17;35.91;96717.91;5039312;28;20221;-69
2022/07/16 10:12:24;;;;;;;5.80;1.95;;;;;;;25.21;34.04;96712.84;5038780;28;20627;-69
2022/07/16 10:14:55;;;;;;;2.95;1.75;;;;;;;24.97;35.11;96714.19;5039845;28;20205;-70
2022/07/16 10:17:30;;;;;;;5.28;1.98;;;;;;;25.09;35.71;96727.53;5039515;28;20452;-69
2022/07/16 10:19:58;;;;;;;3.75;1.70;;;;;;;25.00;36.96;96721.78;5039373;28;20239;-69
2022/07/16 10:22:30;;;;;;;2.70;1.83;;;;;;;25.43;35.96;96730.59;5039174;28;20426;-69
2022/07/16 10:24:58;;;;;;;6.32;1.92;;;;;;;25.37;34.78;96731.59;5039422;28;20205;-69
2022/07/16 10:27:34;;;;;;;3.83;1.85;;;;;;;25.54;35.26;96718.78;5039335;28;20211;-69
2022/07/16 10:30:16;;;;;;;3.15;1.90;;;;;;;26.01;35.29;96709.69;5039084;28;20489;-70
2022/07/16 10:33:12;;;;;;;4.05;1.90;;;;;;;26.01;35.77;96725.91;5038680;28;20193;-70
2022/07/16 10:35:40;;;;;;;2.15;1.58;;;;;;;25.73;36.10;96727.34;5039125;28;20197;-69
2022/07/16 10:38:09;;;;;;;4.80;1.70;;;;;;;25.65;33.34;96722.38;5039353;28;20568;-69
2022/07/16 10:40:37;;;;;;;2.47;1.63;;;;;;;25.61;33.81;96714.00;5038739;28;20228;-70
2022/07/16 10:43:17;;;;;;;3.53;2.00;;;;;;;25.58;33.91;96724.47;5038799;28;20286;-70
2022/07/16 10:45:55;;;;;;;5.88;1.90;;;;;;;26.30;34.85;96721.75;5040371;28;20198;-69
2022/07/16 10:48:24;;;;;;;5.82;2.13;;;;;;;26.47;35.44;96720.47;5039167;28;20200;-70
2022/07/16 10:51:14;;;;;;;3.95;2.10;;;;;;;26.08;32.95;96721.09;5038880;28;20236;-69
2022/07/16 10:54:28;;;;;;;4.50;2.38;;;;;;;26.17;33.02;96721.38;5038531;28;20231;-69
2022/07/16 10:56:57;;;;;;;6.50;1.95;;;;;;;26.03;37.03;96710.25;5011883;28;20256;-69
2022/07/16 10:59:26;;;;;;;4.03;1.90;;;;;;;26.38;34.28;96709.66;5038408;28;20247;-70
2022/07/16 11:01:54;;;;;;;2.72;1.80;;;;;;;26.48;33.33;96721.31;5038631;28;20240;-70
2022/07/16 11:04:37;;;;;;;3.35;1.60;;;;;;;26.68;33.65;96705.13;5037922;28;20201;-70
2022/07/16 11:07:08;;;;;;;4.57;1.80;;;;;;;26.67;36.50;96708.94;5038349;28;20201;-70
2022/07/16 11:09:37;;;;;;;2.25;1.75;;;;;;;26.88;34.29;96718.72;5039012;28;20201;-70
2022/07/16 11:12:15;;;;;;;2.72;2.17;;;;;;;26.86;32.57;96710.06;5038744;28;20675;-70
2022/07/16 11:14:44;;;;;;;5.55;1.80;;;;;;;26.64;34.06;96706.75;5036925;28;20216;-70
2022/07/16 11:17:11;;;;;;;5.13;1.77;;;;;;;26.37;32.61;96708.00;5038307;28;20444;-69
2022/07/16 11:19:42;;;;;;;3.50;1.88;;;;;;;26.16;33.73;96707.06;5038357;28;20205;-69
2022/07/16 11:22:09;;;;;;;5.15;2.30;;;;;;;25.96;34.83;96712.34;5037950;28;20463;-69
2022/07/16 11:24:37;;;;;;;4.72;2.03;;;;;;;26.45;34.13;96706.44;5037438;28;20669;-70
2022/07/16 11:27:04;;;;;;;4.38;2.13;;;;;;;26.19;33.59;96713.84;5038647;28;20205;-69
2022/07/16 11:29:31;;;;;;;6.38;1.95;;;;;;;26.86;34.84;96715.47;5038275;28;20212;-70
2022/07/16 11:31:59;;;;;;;3.53;1.65;;;;;;;27.07;31.00;96711.78;5037967;28;20225;-70
2022/07/16 11:34:26;;;;;;;5.07;2.00;;;;;;;26.60;33.86;96713.78;5037538;28;20320;-70
2022/07/16 11:36:57;;;;;;;2.50;1.52;;;;;;;26.43;33.70;96728.59;5037921;28;20205;-69
2022/07/16 11:39:26;;;;;;;2.58;1.40;;;;;;;26.46;33.70;96726.16;5038305;28;20468;-70
2022/07/16 11:41:54;;;;;;;2.28;1.70;;;;;;;26.19;32.52;96733.56;5037614;28;20217;-70